Time;durP1;ratioP1;P1;durP2;ratioP2;P2;SDS_P1;SDS_P2;PMS_P1;PMS_P2;Temp;Humidity;BMP_temperature;BMP_pressure;BME280_temperature;BME280_humidity;BME280_pressure;Samples;Min_cycle;Max_cycle;Signal;HPM_P1;HPM_P2
2022/06/18 00:01:21;;;;;;;7.43;4.10;;;;;;;20.96;62.53;101750.75;4898594;29;20039;-80
2022/06/18 00:03:46;;;;;;;7.25;4.20;;;;;;;20.77;62.15;101720.13;4897685;29;20484;-80
2022/06/18 00:06:12;;;;;;;6.88;4.38;;;;;;;20.94;62.86;101754.47;4898530;29;20037;-80
2022/06/18 00:08:38;;;;;;;8.57;4.38;;;;;;;20.89;63.23;101766.25;4898270;29;20121;-80
2022/06/18 00:13:49;;;;;;;8.43;4.18;;;;;;;20.75;63.43;101753.56;4898774;29;20085;-81
2022/06/18 00:16:21;;;;;;;6.10;4.03;;;;;;;20.38;63.62;101705.34;4898445;29;20434;-80
2022/06/18 00:18:46;;;;;;;6.18;4.35;;;;;;;20.65;63.62;101749.25;4898337;29;20032;-80
2022/06/18 00:21:17;;;;;;;7.25;4.32;;;;;;;20.35;63.92;101711.69;4898211;29;20040;-80
2022/06/18 00:23:42;;;;;;;7.93;4.15;;;;;;;20.48;64.88;101733.28;4898410;29;20025;-80
2022/06/18 00:26:10;;;;;;;6.40;4.43;;;;;;;20.52;64.22;101750.38;4898160;29;20025;-80
2022/06/18 00:28:35;;;;;;;7.95;4.10;;;;;;;20.44;65.26;101749.41;4898466;29;20089;-81
2022/06/18 00:31:00;;;;;;;6.63;4.45;;;;;;;20.38;66.41;101749.97;4898227;29;20024;-80
2022/06/18 00:33:28;;;;;;;7.40;4.53;;;;;;;20.21;66.07;101739.16;4898187;29;20028;-80
2022/06/18 00:35:57;;;;;;;6.05;4.38;;;;;;;20.28;65.65;101742.91;4898012;29;20032;-80
2022/06/18 00:38:29;;;;;;;7.18;4.65;;;;;;;20.21;66.75;101751.47;4898264;29;20408;-80
2022/06/18 00:40:56;;;;;;;10.23;4.53;;;;;;;20.14;66.89;101750.34;4898152;29;20049;-80
2022/06/18 00:43:27;;;;;;;5.65;4.30;;;;;;;19.99;67.17;101742.06;4898098;29;20020;-80
2022/06/18 00:45:58;;;;;;;7.72;4.65;;;;;;;19.77;68.11;101719.53;4897931;29;20033;-80
2022/06/18 00:48:29;;;;;;;12.30;5.18;;;;;;;19.71;67.22;101710.41;4897780;29;20029;-80
2022/06/18 00:51:01;;;;;;;9.05;5.03;;;;;;;19.81;67.12;101730.56;4898145;29;20032;-81
2022/06/18 00:53:36;;;;;;;7.63;4.70;;;;;;;19.86;68.36;101742.31;4897955;29;20040;-80
2022/06/18 00:56:09;;;;;;;7.10;4.88;;;;;;;19.77;68.16;101741.31;4897695;29;20032;-81
2022/06/18 00:58:51;;;;;;;8.27;4.90;;;;;;;19.78;67.84;101744.75;4897724;29;20032;-80
2022/06/18 01:01:37;;;;;;;9.45;4.95;;;;;;;19.74;67.70;101735.50;4904219;23;20067;-80
2022/06/18 01:04:30;;;;;;;5.88;4.53;;;;;;;19.74;68.17;101741.56;4897273;29;20032;-80
2022/06/18 01:15:44;;;;;;;8.48;5.70;;;;;;;19.00;70.17;101656.38;4912378;23;20063;-80
2022/06/18 01:18:18;;;;;;;9.32;5.53;;;;;;;18.92;71.48;101654.41;4897608;29;20025;-80
2022/06/18 01:21:21;;;;;;;7.53;5.07;;;;;;;19.37;71.01;101735.19;4897753;29;20028;-80
2022/06/18 01:24:15;;;;;;;9.05;5.35;;;;;;;18.05;71.50;101536.16;4897422;29;20164;-80
2022/06/18 01:26:59;;;;;;;9.35;6.07;;;;;;;19.20;71.49;101723.56;4897711;29;20383;-80
2022/06/18 01:29:30;;;;;;;6.65;5.22;;;;;;;19.13;71.96;101728.47;4897657;29;20039;-80
2022/06/18 01:31:56;;;;;;;9.48;5.38;;;;;;;18.19;72.30;101569.84;4897626;29;20029;-80
2022/06/18 01:34:24;;;;;;;8.45;5.78;;;;;;;18.90;72.35;101683.31;4897568;29;20043;-80
2022/06/18 01:36:50;;;;;;;13.23;6.15;;;;;;;17.96;72.49;101537.75;4897155;29;20495;-80
2022/06/18 01:39:48;;;;;;;8.77;5.18;;;;;;;17.96;72.70;101545.59;4897311;29;20039;-80
2022/06/18 01:42:45;;;;;;;10.07;6.07;;;;;;;19.06;72.79;101729.13;4897198;29;20052;-80
2022/06/18 01:45:29;;;;;;;8.05;5.75;;;;;;;18.49;73.36;101637.06;4891061;29;20511;-80
2022/06/18 01:48:07;;;;;;;8.73;5.38;;;;;;;18.61;73.88;101661.34;4897486;29;20485;-80
2022/06/18 01:51:13;;;;;;;11.05;5.80;;;;;;;17.96;73.56;101560.44;4897284;29;20107;-80
2022/06/18 01:56:59;;;;;;;11.55;6.30;;;;;;;18.95;72.28;101714.31;4869399;29;20079;-80
2022/06/18 01:59:41;;;;;;;8.82;5.75;;;;;;;18.48;73.49;101647.63;4897288;29;20029;-80
2022/06/18 02:02:19;;;;;;;8.30;5.90;;;;;;;17.74;73.55;101532.66;4880048;29;20033;-80
2022/06/18 02:04:48;;;;;;;9.13;6.38;;;;;;;18.77;74.64;101705.41;4897136;29;20485;-80
2022/06/18 02:07:43;;;;;;;7.47;5.80;;;;;;;17.61;74.33;101524.13;4897333;29;20071;-80
2022/06/18 02:10:23;;;;;;;;;;;;;;;;;;;;;
2022/06/18 02:13:12;;;;;;;10.38;7.07;;;;;;;18.67;74.85;101713.19;4896555;29;20029;-80
2022/06/18 02:15:42;;;;;;;10.20;7.22;;;;;;;18.68;75.12;101711.38;4861581;29;20041;-80
2022/06/18 02:18:11;;;;;;;9.45;6.90;;;;;;;18.70;74.92;101706.88;4861493;29;20519;-80
2022/06/18 02:20:42;;;;;;;10.82;7.00;;;;;;;18.66;75.23;101706.28;4878333;29;20124;-80
2022/06/18 02:23:07;;;;;;;11.43;7.30;;;;;;;18.69;75.31;101700.81;4861432;29;20033;-80
2022/06/18 02:25:33;;;;;;;9.32;7.13;;;;;;;18.71;74.95;101704.13;4878498;29;20485;-81
2022/06/18 02:28:11;;;;;;;10.80;8.10;;;;;;;18.50;75.12;101680.56;4881691;29;20062;-80
2022/06/18 02:30:37;;;;;;;12.63;7.30;;;;;;;18.63;75.53;101696.88;4881699;29;20029;-80
2022/06/18 02:33:36;;;;;;;8.52;7.40;;;;;;;18.69;74.45;101697.38;4880356;29;20036;-80
2022/06/18 02:36:12;;;;;;;9.68;7.22;;;;;;;18.65;75.12;101699.41;4842437;29;20159;-80
2022/06/18 02:38:37;;;;;;;12.05;7.90;;;;;;;18.71;75.13;101692.84;4842200;29;20135;-80
2022/06/18 02:41:03;;;;;;;10.77;8.40;;;;;;;18.70;75.15;101699.03;4842131;29;20070;-80
2022/06/18 02:43:28;;;;;;;11.98;7.95;;;;;;;18.48;75.49;101671.16;4842417;29;20101;-80
2022/06/18 02:45:55;;;;;;;12.23;8.30;;;;;;;18.58;74.59;101680.75;4842029;29;20049;-78
2022/06/18 02:48:32;;;;;;;12.10;8.32;;;;;;;18.53;74.39;101674.25;4842255;29;20436;-80
2022/06/18 02:51:00;;;;;;;11.80;8.65;;;;;;;18.72;75.21;101697.13;4842194;29;20098;-80
2022/06/18 02:53:27;;;;;;;11.45;9.23;;;;;;;18.69;75.26;101698.22;4842195;29;20057;-80
2022/06/18 02:55:55;;;;;;;13.32;8.48;;;;;;;18.65;75.66;101693.34;4841646;29;20059;-79
2022/06/18 02:58:25;;;;;;;9.60;7.85;;;;;;;18.68;74.98;101698.31;4842035;29;20030;-80
2022/06/18 03:00:53;;;;;;;12.18;8.23;;;;;;;18.58;76.09;101701.69;4841873;29;20619;-80
2022/06/18 03:03:21;;;;;;;14.30;8.82;;;;;;;18.60;74.99;101710.22;4842064;29;20508;-80
2022/06/18 03:05:47;;;;;;;12.35;8.80;;;;;;;18.57;74.62;101691.31;4842018;29;20547;-80
2022/06/18 03:08:13;;;;;;;13.38;8.93;;;;;;;18.67;74.88;101707.13;4841746;29;20034;-80
2022/06/18 03:13:22;;;;;;;17.80;10.25;;;;;;;18.61;74.75;101700.59;4870693;29;20159;-80
2022/06/18 03:15:49;;;;;;;12.18;8.75;;;;;;;18.64;75.08;101708.19;4899588;29;20484;-80
2022/06/18 03:18:16;;;;;;;13.77;9.25;;;;;;;18.66;74.24;101705.47;4899418;29;20037;-79
2022/06/18 03:20:56;;;;;;;12.73;9.43;;;;;;;18.66;74.18;101710.69;4899669;29;20076;-79
2022/06/18 03:23:23;;;;;;;13.40;8.77;;;;;;;18.58;74.39;101696.47;4899324;29;20104;-80
2022/06/18 03:25:49;;;;;;;12.95;9.05;;;;;;;18.67;74.55;101710.56;4899165;29;20392;-79
2022/06/18 03:28:15;;;;;;;12.98;9.75;;;;;;;18.63;74.65;101707.34;4899278;29;20033;-79
2022/06/18 03:30:44;;;;;;;15.23;8.98;;;;;;;18.67;74.25;101713.19;4899330;29;20088;-80
2022/06/18 03:33:10;;;;;;;11.98;9.50;;;;;;;18.68;74.58;101717.47;4899223;29;20029;-80
2022/06/18 03:35:37;;;;;;;14.88;10.13;;;;;;;18.70;73.41;101719.97;4899192;29;20063;-79
2022/06/18 03:38:02;;;;;;;14.77;9.70;;;;;;;18.79;72.81;101716.59;4898960;29;20021;-81
2022/06/18 03:40:28;;;;;;;16.10;9.88;;;;;;;18.79;72.96;101713.97;4899155;29;20039;-80
2022/06/18 03:42:54;;;;;;;15.43;9.55;;;;;;;18.68;72.38;101699.16;4898781;29;20028;-80
2022/06/18 03:45:19;;;;;;;13.63;9.48;;;;;;;18.72;72.48;101697.13;4898814;29;20036;-81
2022/06/18 03:47:49;;;;;;;12.50;9.50;;;;;;;18.90;73.07;101719.97;4898711;29;20502;-80
2022/06/18 03:50:19;;;;;;;14.88;9.27;;;;;;;18.92;73.46;101723.28;4898772;29;20060;-81
2022/06/18 03:52:44;;;;;;;12.75;8.73;;;;;;;18.96;73.16;101720.38;4898715;29;20036;-81
2022/06/18 03:55:12;;;;;;;15.45;9.68;;;;;;;19.00;72.42;101717.41;4898693;29;20033;-80
2022/06/18 03:57:38;;;;;;;13.43;9.68;;;;;;;18.88;72.28;101684.41;4898389;29;20038;-80
2022/06/18 04:00:05;;;;;;;14.32;9.40;;;;;;;19.05;71.95;101709.13;4898988;29;20024;-80
2022/06/18 04:02:30;;;;;;;15.85;10.15;;;;;;;18.98;71.61;101693.16;4898836;29;20124;-80
2022/06/18 04:04:56;;;;;;;20.63;10.15;;;;;;;19.18;72.35;101712.41;4898710;29;20532;-80
2022/06/18 04:07:22;;;;;;;16.95;9.73;;;;;;;19.09;72.29;101687.00;4898683;29;20119;-81
2022/06/18 04:09:52;;;;;;;13.30;9.73;;;;;;;19.36;71.56;101707.34;4898419;29;20426;-81
2022/06/18 04:12:18;;;;;;;13.82;9.30;;;;;;;19.45;70.48;101703.94;4898302;29;20032;-81
2022/06/18 04:14:46;;;;;;;16.88;9.43;;;;;;;19.29;70.47;101665.16;4898187;29;20044;-80
2022/06/18 04:17:14;;;;;;;12.38;9.55;;;;;;;19.67;70.44;101710.81;4898545;29;20130;-81
2022/06/18 04:19:40;;;;;;;15.23;9.95;;;;;;;19.59;70.38;101668.72;4898333;29;20032;-81
2022/06/18 04:22:05;;;;;;;16.33;10.27;;;;;;;19.89;69.50;101705.34;4897415;29;20041;-81
2022/06/18 04:24:30;;;;;;;14.77;9.93;;;;;;;19.84;68.81;101664.75;4881507;29;20040;-80
2022/06/18 04:26:56;;;;;;;12.85;10.13;;;;;;;20.15;67.76;101682.00;4898131;29;20103;-80
2022/06/18 04:29:21;;;;;;;19.52;9.85;;;;;;;20.22;67.31;101669.19;4898180;29;20473;-81
2022/06/18 04:31:47;;;;;;;14.65;10.55;;;;;;;20.57;68.04;101687.00;4898118;29;20068;-80
2022/06/18 04:34:13;;;;;;;16.35;9.60;;;;;;;20.50;67.05;101646.53;4898025;29;20025;-81
2022/06/18 04:36:41;;;;;;;15.40;9.60;;;;;;;20.99;66.01;101684.81;4897978;29;20033;-80
2022/06/18 04:39:06;;;;;;;18.38;9.90;;;;;;;20.07;64.67;101511.47;4904284;23;20541;-80
2022/06/18 04:41:50;;;;;;;14.23;9.80;;;;;;;20.73;64.85;101573.53;4897657;29;20044;-81
2022/06/18 04:44:15;;;;;;;16.77;9.82;;;;;;;21.59;63.82;101694.94;4881040;29;20032;-81
2022/06/18 04:46:41;;;;;;;15.25;9.63;;;;;;;21.73;62.87;101697.91;4881157;29;20029;-80
2022/06/18 04:49:06;;;;;;;16.08;9.43;;;;;;;21.79;62.43;101695.66;4897441;29;20064;-81
2022/06/18 04:51:31;;;;;;;16.23;9.60;;;;;;;21.96;62.85;101708.00;4881011;29;20084;-82
2022/06/18 04:53:57;;;;;;;13.73;9.75;;;;;;;22.01;62.71;101705.72;4897953;29;20482;-81
2022/06/18 04:56:22;;;;;;;15.20;9.27;;;;;;;22.17;62.68;101699.84;4897360;29;20044;-79
2022/06/18 04:58:47;;;;;;;16.55;9.95;;;;;;;22.31;62.29;101683.50;4897843;29;20044;-82
2022/06/18 05:01:15;;;;;;;12.98;9.57;;;;;;;22.85;60.21;101700.88;4897089;29;20072;-81
2022/06/18 05:03:41;;;;;;;16.00;10.07;;;;;;;23.27;58.29;101705.38;4897753;29;20056;-81
2022/06/18 05:06:07;;;;;;;15.73;10.00;;;;;;;23.64;55.86;101702.41;4897650;29;20512;-81
2022/06/18 05:08:33;;;;;;;15.18;10.00;;;;;;;24.05;55.61;101705.13;4897746;29;20060;-82
2022/06/18 05:10:58;;;;;;;13.68;9.98;;;;;;;24.24;55.33;101694.25;4897500;29;20071;-82
2022/06/18 05:13:23;;;;;;;15.27;10.25;;;;;;;24.39;56.07;101686.53;4880808;29;20044;-82
2022/06/18 05:15:56;;;;;;;15.70;9.93;;;;;;;24.56;54.07;101663.56;4880761;29;20140;-82
2022/06/18 05:18:24;;;;;;;13.60;9.88;;;;;;;24.91;52.82;101709.88;4896405;29;20037;-83
2022/06/18 05:20:51;;;;;;;17.92;10.63;;;;;;;25.04;52.40;101698.81;4897698;29;20035;-84
2022/06/18 05:23:41;;;;;;;12.48;10.05;;;;;;;25.45;52.39;101715.31;4879855;29;20044;-82
2022/06/18 05:26:21;;;;;;;15.68;9.95;;;;;;;25.21;52.05;101655.47;4897346;29;20024;-83
2022/06/18 05:29:02;;;;;;;17.02;9.82;;;;;;;24.84;50.20;101548.56;4897139;29;20029;-82
2022/06/18 05:31:36;;;;;;;10.73;7.55;;;;;;;25.05;50.13;101552.44;4897473;29;20473;-81
2022/06/18 05:34:03;;;;;;;13.38;9.35;;;;;;;25.27;48.68;101554.31;4897174;29;20036;-82
2022/06/18 05:36:31;;;;;;;13.23;8.15;;;;;;;26.13;48.32;101656.38;4897506;29;20029;-82
2022/06/18 05:39:05;;;;;;;12.45;9.10;;;;;;;26.18;48.77;101616.97;4897083;29;20053;-81
2022/06/18 05:41:36;;;;;;;14.82;10.40;;;;;;;25.81;47.30;101558.72;4897710;29;20537;-82
2022/06/18 05:44:03;;;;;;;14.23;10.02;;;;;;;26.73;47.21;101710.31;4897052;29;20060;-81
2022/06/18 05:46:32;;;;;;;16.10;10.02;;;;;;;26.67;47.12;101679.25;4897298;29;20032;-82
2022/06/18 05:49:10;;;;;;;14.57;9.85;;;;;;;26.42;46.70;101581.47;5106865;23;20305;-82
2022/06/18 05:52:00;;;;;;;19.95;11.23;;;;;;;27.54;46.16;101727.97;4897157;29;20048;-82
2022/06/18 05:55:08;;;;;;;14.93;10.80;;;;;;;27.85;45.80;101729.53;4897172;29;20027;-81
2022/06/18 05:57:56;;;;;;;14.68;9.52;;;;;;;28.31;43.92;101724.69;4897154;29;20288;-81
2022/06/18 06:00:44;;;;;;;15.27;11.38;;;;;;;28.51;44.33;101722.19;4898492;29;20119;-80
2022/06/18 06:05:42;;;;;;;16.80;10.88;;;;;;;28.43;42.95;101685.16;4953278;23;20405;-81
2022/06/18 06:08:11;;;;;;;14.80;10.48;;;;;;;29.06;42.49;101709.91;4884017;29;20024;-81
2022/06/18 06:13:22;;;;;;;19.02;11.20;;;;;;;28.51;41.21;101552.13;4907471;23;20060;-82
2022/06/18 06:15:53;;;;;;;18.13;11.07;;;;;;;29.57;41.49;101701.53;4901103;29;20041;-82
2022/06/18 06:18:20;;;;;;;15.23;10.90;;;;;;;29.75;40.14;101692.97;4900656;29;20442;-82
2022/06/18 06:20:48;;;;;;;17.45;11.00;;;;;;;29.81;40.50;101692.16;4900727;29;20025;-83
2022/06/18 06:23:14;;;;;;;19.45;11.05;;;;;;;29.99;40.03;101698.53;4900616;29;20092;-79
2022/06/18 06:25:42;;;;;;;17.02;10.45;;;;;;;29.60;41.04;101693.16;4900362;29;20378;-82
2022/06/18 06:28:12;;;;;;;18.98;10.73;;;;;;;29.52;40.03;101672.03;4900185;29;20093;-82
2022/06/18 06:30:40;;;;;;;20.73;10.90;;;;;;;29.84;39.64;101687.25;4900370;29;20029;-82
2022/06/18 06:33:05;;;;;;;17.67;11.25;;;;;;;29.92;40.36;101695.03;4900443;29;20024;-84
2022/06/18 06:35:36;;;;;;;20.33;11.27;;;;;;;29.96;39.65;101698.94;4899360;29;20500;-84
2022/06/18 06:38:03;;;;;;;17.33;10.60;;;;;;;30.54;38.53;101704.47;4900442;29;20021;-82
2022/06/18 06:40:31;;;;;;;16.13;10.15;;;;;;;30.83;38.66;101689.91;4900532;29;20068;-85
2022/06/18 06:42:58;;;;;;;18.23;10.32;;;;;;;30.81;38.10;101699.97;4900268;29;20021;-83
2022/06/18 06:45:27;;;;;;;16.80;11.38;;;;;;;30.56;38.65;101697.09;4899894;29;20040;-83
2022/06/18 06:47:52;;;;;;;19.33;10.98;;;;;;;30.39;39.13;101687.09;4900419;29;20025;-82
2022/06/18 06:50:19;;;;;;;18.02;11.00;;;;;;;30.87;38.46;101697.47;4900250;29;20029;-81
2022/06/18 06:52:45;;;;;;;15.98;10.77;;;;;;;31.36;36.76;101697.72;4900005;29;20037;-81
2022/06/18 06:58:11;;;;;;;20.48;11.20;;;;;;;31.53;35.91;101692.69;4900087;29;20059;-79
2022/06/18 07:00:45;;;;;;;14.98;10.10;;;;;;;31.40;37.20;101687.44;4899760;29;20470;-80
2022/06/18 07:03:16;;;;;;;17.45;11.30;;;;;;;31.08;37.31;101666.00;4900115;29;20039;-80
2022/06/18 07:08:34;;;;;;;16.92;10.65;;;;;;;30.58;36.34;101571.63;4823065;29;20591;-79
2022/06/18 07:11:00;;;;;;;15.88;10.32;;;;;;;31.21;37.23;101657.16;4808707;29;20530;-79
2022/06/18 07:13:26;;;;;;;15.20;9.98;;;;;;;31.68;35.89;101701.25;4823146;29;20046;-79
2022/06/18 07:15:51;;;;;;;15.82;10.23;;;;;;;31.75;35.75;101695.88;4823174;29;20042;-80
2022/06/18 07:18:22;;;;;;;19.92;10.30;;;;;;;31.71;37.04;101673.28;4823523;29;20034;-82
2022/06/18 07:23:23;;;;;;;18.52;10.68;;;;;;;32.48;36.45;101706.00;4886011;23;20052;-82
2022/06/18 07:25:48;;;;;;;16.00;9.75;;;;;;;32.58;35.42;101676.09;4880826;29;20040;-81
2022/06/18 07:28:14;;;;;;;18.35;10.38;;;;;;;32.75;34.43;101693.19;4864006;29;20081;-81
2022/06/18 07:30:40;;;;;;;16.15;10.60;;;;;;;32.74;34.95;101687.03;4880627;29;20025;-81
2022/06/18 07:33:05;;;;;;;17.75;10.95;;;;;;;32.68;35.00;101703.97;4863780;29;20120;-81
2022/06/18 07:35:37;;;;;;;20.73;11.20;;;;;;;32.40;34.94;101685.72;4880764;29;20033;-79
2022/06/18 07:38:02;;;;;;;20.00;11.05;;;;;;;32.36;34.86;101668.50;4863850;29;20032;-81
2022/06/18 07:40:33;;;;;;;15.50;11.18;;;;;;;32.62;36.03;101702.16;4864105;29;20096;-81
2022/06/18 07:43:01;;;;;;;18.10;11.55;;;;;;;31.86;35.46;101697.06;4863848;29;20044;-79
2022/06/18 07:45:27;;;;;;;18.75;10.75;;;;;;;30.66;39.16;101679.88;4880119;29;20036;-81
2022/06/18 07:47:52;;;;;;;17.35;11.60;;;;;;;29.99;40.22;101674.56;4880461;29;20032;-78
2022/06/18 07:50:20;;;;;;;20.88;11.30;;;;;;;29.53;41.58;101689.66;4880315;29;20025;-80
2022/06/18 07:52:46;;;;;;;16.45;10.60;;;;;;;28.95;42.69;101673.22;4880008;29;20115;-81
2022/06/18 07:55:16;;;;;;;18.75;11.63;;;;;;;28.79;43.56;101691.09;4863495;29;20025;-81
2022/06/18 07:57:43;;;;;;;18.33;10.35;;;;;;;28.78;44.32;101693.94;4880228;29;20069;-80
2022/06/18 08:00:09;;;;;;;19.77;11.13;;;;;;;28.60;44.60;101689.13;4879966;29;20025;-79
2022/06/18 08:02:39;;;;;;;24.10;11.15;;;;;;;28.51;43.86;101692.94;4879889;29;20021;-80
2022/06/18 08:05:06;;;;;;;20.10;11.17;;;;;;;28.22;44.25;101659.41;4879793;29;20037;-78
2022/06/18 08:07:32;;;;;;;17.95;11.02;;;;;;;28.28;43.85;101679.91;4880186;29;20301;-77
2022/06/18 08:09:57;;;;;;;21.02;10.13;;;;;;;28.49;45.03;101677.22;4880128;29;20486;-81
2022/06/18 08:12:23;;;;;;;20.00;11.30;;;;;;;28.45;43.89;101677.81;4880101;29;20145;-82
2022/06/18 08:17:24;;;;;;;19.30;10.70;;;;;;;27.86;44.25;101601.94;4913042;23;20060;-81
2022/06/18 08:19:50;;;;;;;22.02;10.00;;;;;;;28.09;46.72;101604.34;4898451;29;20025;-81
2022/06/18 08:22:15;;;;;;;22.73;10.50;;;;;;;28.61;44.61;101658.06;4898294;29;20033;-79
2022/06/18 08:24:42;;;;;;;20.38;10.80;;;;;;;28.50;46.20;101646.13;4897508;29;20040;-83
2022/06/18 08:27:07;;;;;;;13.55;8.63;;;;;;;28.57;46.58;101660.31;4898402;29;20060;-83
2022/06/18 08:29:34;;;;;;;18.77;10.65;;;;;;;28.42;45.54;101667.56;4898421;29;20032;-81
2022/06/18 08:32:15;;;;;;;18.63;10.82;;;;;;;28.49;46.34;101663.09;4898179;29;20020;-82
2022/06/18 08:34:40;;;;;;;22.60;10.40;;;;;;;28.34;45.92;101620.72;4898144;29;20031;-77
2022/06/18 08:37:08;;;;;;;18.60;9.93;;;;;;;28.47;44.62;101644.69;4898150;29;20020;-80
2022/06/18 08:39:34;;;;;;;16.05;9.70;;;;;;;28.49;45.82;101650.63;4898145;29;20442;-80
2022/06/18 08:42:13;;;;;;;18.67;11.13;;;;;;;28.42;44.29;101663.09;4898239;29;20393;-86
2022/06/18 08:45:01;;;;;;;17.42;9.88;;;;;;;28.44;44.94;101669.00;4897999;29;20068;-83
2022/06/18 08:47:55;;;;;;;18.15;10.60;;;;;;;28.52;44.83;101671.53;4897807;29;20036;-85
2022/06/18 08:50:55;;;;;;;18.55;11.40;;;;;;;28.57;44.63;101676.25;4839927;29;20442;-85
2022/06/18 08:53:40;;;;;;;17.75;10.95;;;;;;;28.44;45.50;101653.06;4839966;29;20509;-83
2022/06/18 08:56:13;;;;;;;19.08;11.35;;;;;;;28.57;46.71;101673.59;4840178;29;20493;-81
2022/06/18 08:58:48;;;;;;;19.33;11.38;;;;;;;28.65;45.34;101673.44;4839929;29;20130;-87
2022/06/18 09:07:11;;;;;;;22.13;10.43;;;;;;;28.52;46.11;101670.72;4945037;23;20060;-81
2022/06/18 09:09:46;;;;;;;23.70;10.93;;;;;;;28.45;46.00;101669.84;4897835;29;20036;-83
2022/06/18 09:12:17;;;;;;;21.27;9.90;;;;;;;28.39;44.86;101682.03;4897764;29;20100;-85
2022/06/18 09:14:57;;;;;;;19.70;10.70;;;;;;;28.38;44.70;101677.75;4897578;29;20056;-82
2022/06/18 09:20:26;;;;;;;20.00;9.77;;;;;;;28.58;45.90;101676.03;4912109;23;20057;-82
2022/06/18 09:23:04;;;;;;;19.27;8.25;;;;;;;28.67;45.68;101673.25;4858234;29;20045;-81
2022/06/18 09:25:37;;;;;;;14.82;8.45;;;;;;;28.53;43.94;101659.88;4858376;29;20041;-82
2022/06/18 09:28:33;;;;;;;19.10;9.20;;;;;;;28.38;44.62;101643.22;4842896;29;20042;-81
2022/06/18 09:31:04;;;;;;;15.80;8.63;;;;;;;28.11;44.02;101589.03;4854270;29;20042;-83
2022/06/18 09:34:06;;;;;;;14.70;8.43;;;;;;;28.71;43.64;101663.84;4858294;29;20156;-81
2022/06/18 09:42:45;;;;;;;16.80;8.23;;;;;;;28.99;43.89;101669.97;4905773;23;20108;-84
2022/06/18 09:45:37;;;;;;;19.55;7.90;;;;;;;28.98;44.77;101659.53;4884876;29;20044;-86
2022/06/18 09:48:03;;;;;;;19.75;8.88;;;;;;;28.26;43.63;101539.31;4901063;29;20171;-84
2022/06/18 09:50:41;;;;;;;17.63;8.95;;;;;;;29.05;43.71;101647.09;4907527;23;20307;-81
2022/06/18 09:53:45;;;;;;;16.20;8.82;;;;;;;29.11;43.21;101654.28;4882000;29;20121;-83
2022/06/18 09:56:16;;;;;;;15.45;9.07;;;;;;;29.06;45.29;101654.03;4824828;29;20034;-85
2022/06/18 09:59:04;;;;;;;;;;;;;;;29.21;43.53;101654.72;4825008;29;20489;-83
2022/06/18 10:01:43;;;;;;;17.52;9.48;;;;;;;28.82;45.01;101615.47;4770566;30;20315;-80
2022/06/18 10:07:05;;;;;;;20.33;9.55;;;;;;;28.81;44.41;101595.22;4900986;29;20065;-84
2022/06/18 10:09:51;;;;;;;22.30;10.30;;;;;;;28.85;45.75;101596.44;4900373;29;20048;-79
2022/06/18 10:18:52;;;;;;;19.70;9.85;;;;;;;29.05;44.21;101637.25;4907276;23;20095;-84
2022/06/18 10:22:13;;;;;;;15.98;7.90;;;;;;;29.21;46.76;101646.75;4907274;23;20056;-82
2022/06/18 10:25:29;;;;;;;20.38;9.55;;;;;;;29.32;45.66;101646.16;4883541;29;20123;-84
2022/06/18 10:28:13;;;;;;;16.15;8.45;;;;;;;29.48;46.11;101628.16;4900322;29;20040;-81
2022/06/18 10:31:44;;;;;;;21.80;9.88;;;;;;;29.15;46.00;101581.03;4900514;29;20198;-84
2022/06/18 10:34:37;;;;;;;19.90;8.68;;;;;;;29.72;46.92;101630.31;4879555;29;20083;-88
2022/06/18 10:40:55;;;;;;;19.00;9.25;;;;;;;29.74;44.88;101622.91;4862486;29;20130;-83
2022/06/18 10:44:04;;;;;;;19.20;9.57;;;;;;;29.81;45.15;101618.44;4862422;29;20030;-82
2022/06/18 10:46:35;;;;;;;19.55;9.90;;;;;;;29.36;44.23;101553.44;4859786;29;20061;-83
2022/06/18 10:49:23;;;;;;;20.02;10.88;;;;;;;29.41;43.30;101551.81;4860407;29;20488;-86
2022/06/18 10:51:51;;;;;;;18.38;10.35;;;;;;;28.80;43.22;101466.75;4917570;23;20008;-85
2022/06/18 10:54:49;;;;;;;17.70;9.40;;;;;;;28.83;43.82;101458.41;4900130;29;20052;-82
2022/06/18 10:57:30;;;;;;;15.38;9.05;;;;;;;28.80;43.60;101466.75;4900041;29;20029;-81
2022/06/18 11:00:25;;;;;;;18.15;8.82;;;;;;;29.76;44.09;101612.06;4899938;29;20056;-82
2022/06/18 11:03:40;;;;;;;16.05;8.18;;;;;;;29.97;45.09;101606.53;4899792;29;20036;-84
2022/06/18 11:06:14;;;;;;;21.40;9.38;;;;;;;29.72;44.91;101537.13;4899653;29;20040;-84
2022/06/18 11:09:09;;;;;;;18.35;9.70;;;;;;;29.70;43.09;101512.56;4899634;29;20080;-86
2022/06/18 11:11:55;;;;;;;20.85;9.45;;;;;;;29.60;45.25;101493.53;4899851;29;20401;-83
2022/06/18 11:14:21;;;;;;;18.58;9.40;;;;;;;29.88;42.59;101547.31;4899551;29;20477;-85
2022/06/18 11:16:47;;;;;;;16.48;8.70;;;;;;;29.75;43.20;101522.56;4900036;29;20108;-84
2022/06/18 11:22:33;;;;;;;17.25;8.93;;;;;;;30.33;43.76;101576.00;4906571;23;20126;-83
2022/06/18 11:25:55;;;;;;;19.42;9.80;;;;;;;29.33;43.00;101418.16;4900425;29;20111;-87
2022/06/18 11:28:55;;;;;;;19.80;10.02;;;;;;;29.53;42.35;101439.47;4907182;23;20064;-83
2022/06/18 11:31:55;;;;;;;19.40;8.90;;;;;;;30.05;44.16;101506.94;4900477;29;20085;-85
2022/06/18 11:38:46;;;;;;;18.50;8.35;;;;;;;30.39;44.68;101541.34;4823734;29;20567;-82
2022/06/18 11:41:40;;;;;;;19.48;9.20;;;;;;;29.39;43.58;101383.56;4825916;29;20050;-84
2022/06/18 11:44:39;;;;;;;23.00;8.85;;;;;;;30.37;43.53;101546.03;4808480;29;20384;-84
2022/06/18 11:51:23;;;;;;;18.52;10.00;;;;;;;30.43;42.11;101537.22;4805278;29;20104;-83
2022/06/18 11:54:33;;;;;;;18.52;9.52;;;;;;;29.90;41.47;101433.47;4804756;29;20043;-84
2022/06/18 12:00:37;;;;;;;15.73;8.55;;;;;;;30.42;44.15;101537.41;4751343;30;20082;-83
2022/06/18 12:03:24;;;;;;;16.48;9.18;;;;;;;30.44;42.65;101538.84;4751175;30;20036;-81
2022/06/18 12:09:34;;;;;;;16.95;8.07;;;;;;;30.46;41.48;101527.97;4751274;30;20094;-83
2022/06/18 12:16:16;;;;;;;22.75;9.07;;;;;;;30.53;40.53;101531.44;4750265;30;20051;-87
2022/06/18 12:19:19;;;;;;;18.92;8.40;;;;;;;30.90;43.36;101529.84;4750650;30;20119;-87
2022/06/18 12:22:02;;;;;;;19.40;9.27;;;;;;;31.08;43.35;101531.81;4750632;30;20075;-85
2022/06/18 12:28:26;;;;;;;17.17;9.40;;;;;;;31.05;43.01;101513.53;4781294;30;20062;-84
2022/06/18 12:34:56;;;;;;;17.58;9.43;;;;;;;30.97;44.37;101508.44;4872679;29;20060;-83
2022/06/18 12:37:49;;;;;;;17.73;9.30;;;;;;;30.97;45.16;101501.28;4898299;29;20168;-82
2022/06/18 12:40:51;;;;;;;17.05;9.32;;;;;;;30.82;43.23;101498.09;4898199;29;20137;-83
2022/06/18 12:43:41;;;;;;;18.95;10.02;;;;;;;30.71;44.76;101485.44;4897089;29;20985;-82
2022/06/18 12:46:47;;;;;;;21.27;9.13;;;;;;;29.76;43.58;101333.34;4898249;29;20040;-81
2022/06/18 12:50:13;;;;;;;19.90;9.05;;;;;;;30.91;43.96;101491.47;4881096;29;20477;-81
2022/06/18 12:53:03;;;;;;;17.95;8.57;;;;;;;31.01;43.11;101480.34;4898126;29;20036;-81
2022/06/18 12:55:51;;;;;;;20.80;8.98;;;;;;;30.44;43.39;101370.94;4898217;29;20032;-80
2022/06/18 12:59:06;;;;;;;18.95;8.93;;;;;;;31.13;41.75;101478.59;4897815;29;20137;-85
2022/06/18 13:02:15;;;;;;;20.98;9.20;;;;;;;31.15;41.83;101479.19;4897871;29;20056;-84
2022/06/18 13:05:41;;;;;;;20.17;10.15;;;;;;;30.42;42.54;101365.00;4897829;29;20049;-84
2022/06/18 13:08:36;;;;;;;15.93;9.63;;;;;;;31.09;43.24;101472.88;4840393;29;20049;-82
2022/06/18 13:11:55;;;;;;;17.60;10.60;;;;;;;31.15;43.50;101470.38;4839742;29;20050;-84
2022/06/18 13:14:39;;;;;;;20.38;10.48;;;;;;;31.08;44.11;101463.25;4825084;29;20395;-83
2022/06/18 13:20:37;;;;;;;20.10;11.23;;;;;;;30.82;43.31;101455.44;4803253;29;20123;-81
2022/06/18 13:33:11;;;;;;;23.02;10.13;;;;;;;30.86;44.38;101403.28;4804036;29;20103;-82
2022/06/18 13:35:46;;;;;;;24.13;9.88;;;;;;;30.17;43.91;101305.50;4803549;29;20051;-86
2022/06/18 13:38:48;;;;;;;17.40;9.45;;;;;;;31.02;44.02;101399.28;4803538;29;20053;-83
2022/06/18 13:41:48;;;;;;;16.38;9.35;;;;;;;31.24;43.92;101432.56;4803318;29;20586;-82